Time;durP1;ratioP1;P1;durP2;ratioP2;P2;SDS_P1;SDS_P2;PMS_P1;PMS_P2;Temp;Humidity;BMP_temperature;BMP_pressure;BME280_temperature;BME280_humidity;BME280_pressure;Samples;Min_cycle;Max_cycle;Signal;HPM_P1;HPM_P2
2023/01/16 00:00:59;;;;;;;6.15;2.20;;;4.90;99.90;;;;;;5133196;27;20510;-73
2023/01/16 00:03:25;;;;;;;7.35;2.70;;;5.00;99.90;;;;;;5132534;27;20051;-73
2023/01/16 00:05:50;;;;;;;6.28;2.65;;;5.00;99.90;;;;;;5113408;27;20062;-73
2023/01/16 00:08:16;;;;;;;7.63;2.70;;;5.10;99.90;;;;;;5107524;27;20043;-73
2023/01/16 00:10:43;;;;;;;8.52;3.00;;;5.10;99.90;;;;;;5113267;27;20095;-73
2023/01/16 00:13:11;;;;;;;7.90;2.85;;;5.10;99.90;;;;;;5113470;27;20066;-73
2023/01/16 00:15:36;;;;;;;;;;;5.10;99.90;;;;;;5112234;27;20027;-73
2023/01/16 00:18:02;;;;;;;5.53;2.50;;;5.20;99.90;;;;;;5132268;27;19987;-74
2023/01/16 00:20:28;;;;;;;6.10;3.08;;;5.30;99.90;;;;;;5129979;27;20441;-73
2023/01/16 00:22:53;;;;;;;9.55;2.55;;;5.20;99.90;;;;;;5133371;27;20048;-73
2023/01/16 00:25:19;;;;;;;6.38;2.25;;;5.20;99.90;;;;;;5132471;27;20122;-73
2023/01/16 00:27:44;;;;;;;8.85;2.75;;;5.20;99.90;;;;;;5114208;27;20397;-73
2023/01/16 00:30:10;;;;;;;8.80;2.45;;;5.30;99.90;;;;;;5129817;27;20078;-73
2023/01/16 00:32:36;;;;;;;5.68;2.58;;;5.30;99.90;;;;;;5111863;27;20129;-73
2023/01/16 00:35:02;;;;;;;7.15;2.17;;;5.30;99.90;;;;;;5129276;27;20062;-73
2023/01/16 00:37:28;;;;;;;6.95;2.28;;;5.30;99.90;;;;;;5131706;27;20047;-73
2023/01/16 00:39:53;;;;;;;7.68;2.22;;;5.30;99.90;;;;;;5127048;27;20493;-73
2023/01/16 00:42:19;;;;;;;8.73;2.28;;;5.30;99.90;;;;;;5131624;27;20147;-73
2023/01/16 00:44:45;;;;;;;6.72;2.08;;;5.30;99.90;;;;;;5128622;27;20111;-73
2023/01/16 00:47:11;;;;;;;9.70;2.30;;;5.30;99.90;;;;;;5128193;27;20481;-73
2023/01/16 00:49:36;;;;;;;9.90;3.10;;;5.30;99.90;;;;;;5108030;28;20051;-73
2023/01/16 00:52:03;;;;;;;9.05;2.40;;;5.40;99.90;;;;;;5122769;27;20050;-72
2023/01/16 00:54:28;;;;;;;9.73;2.75;;;5.30;99.90;;;;;;5131431;27;20066;-73
2023/01/16 00:56:54;;;;;;;8.68;2.47;;;5.40;99.90;;;;;;5112405;27;20394;-73
2023/01/16 00:59:20;;;;;;;9.40;2.13;;;5.40;99.90;;;;;;5112713;27;20511;-73
2023/01/16 01:01:45;;;;;;;6.72;2.15;;;5.40;99.90;;;;;;5127250;27;20043;-73
2023/01/16 01:04:12;;;;;;;7.05;2.30;;;5.40;99.90;;;;;;5112181;27;20054;-74
2023/01/16 01:06:38;;;;;;;8.00;2.30;;;5.40;99.90;;;;;;5112301;27;20762;-73
2023/01/16 01:09:04;;;;;;;10.93;2.42;;;5.40;99.90;;;;;;5111162;27;20099;-73
2023/01/16 01:11:29;;;;;;;8.88;2.33;;;5.50;99.90;;;;;;5112453;27;20524;-73
2023/01/16 01:13:55;;;;;;;7.93;2.95;;;5.40;99.90;;;;;;5112366;27;20130;-74
2023/01/16 01:16:20;;;;;;;8.93;2.80;;;5.40;99.90;;;;;;5128497;27;20130;-73
2023/01/16 01:18:46;;;;;;;7.50;2.60;;;5.50;99.90;;;;;;5112289;27;20482;-73
2023/01/16 01:21:12;;;;;;;9.45;2.70;;;5.50;99.90;;;;;;5111739;28;20084;-73
2023/01/16 01:23:37;;;;;;;6.72;2.90;;;5.50;99.90;;;;;;5113114;27;20054;-73
2023/01/16 01:26:12;;;;;;;7.63;2.88;;;5.50;99.90;;;;;;5110722;27;20401;-73
2023/01/16 01:28:38;;;;;;;8.77;2.58;;;5.40;99.90;;;;;;5092383;28;20055;-73
2023/01/16 01:31:06;;;;;;;8.57;2.42;;;5.50;99.90;;;;;;5118376;28;20122;-73
2023/01/16 01:33:32;;;;;;;8.10;2.85;;;5.50;99.90;;;;;;5110270;28;20039;-73
2023/01/16 01:35:58;;;;;;;11.27;4.55;;;5.50;99.90;;;;;;5131523;28;20512;-73
2023/01/16 01:38:24;;;;;;;11.52;5.13;;;5.50;99.90;;;;;;5127835;28;20035;-73
2023/01/16 01:40:49;;;;;;;13.15;5.20;;;5.50;99.90;;;;;;5129527;28;20035;-73
2023/01/16 01:43:15;;;;;;;9.63;5.53;;;5.50;99.90;;;;;;5130918;28;20047;-73
2023/01/16 01:45:45;;;;;;;12.45;5.30;;;5.50;99.90;;;;;;5131321;28;20077;-73
2023/01/16 01:48:13;;;;;;;13.00;5.25;;;5.50;99.90;;;;;;5112873;28;20524;-73
2023/01/16 01:50:42;;;;;;;11.45;5.80;;;5.50;99.90;;;;;;5129842;28;20483;-73
2023/01/16 01:53:18;;;;;;;13.05;6.10;;;5.50;99.90;;;;;;5110813;28;20054;-73
2023/01/16 01:55:46;;;;;;;16.02;6.22;;;5.50;99.90;;;;;;5130967;28;20035;-73
2023/01/16 01:58:20;;;;;;;10.77;5.60;;;5.50;99.90;;;;;;5131247;28;20043;-73
2023/01/16 02:00:48;;;;;;;12.65;5.15;;;5.60;99.90;;;;;;5130647;28;20035;-72
2023/01/16 02:03:25;;;;;;;11.07;4.85;;;5.60;99.90;;;;;;5130274;28;20087;-73
2023/01/16 02:05:54;;;;;;;13.73;4.65;;;5.60;99.90;;;;;;5130231;28;20051;-73
2023/01/16 02:08:22;;;;;;;9.73;4.30;;;5.60;99.90;;;;;;5125641;28;20054;-73
2023/01/16 02:10:51;;;;;;;10.73;4.53;;;5.60;99.90;;;;;;5107889;28;20759;-73
2023/01/16 02:13:17;;;;;;;10.85;4.15;;;5.60;99.90;;;;;;5131248;28;20095;-73
2023/01/16 02:21:28;;;;;;;10.43;3.10;;;5.60;99.90;;;;;;5126624;28;20158;-73
2023/01/16 02:24:29;;;;;;;7.25;2.60;;;5.60;99.90;;;;;;5131191;28;20160;-73
2023/01/16 02:27:18;;;;;;;6.97;2.67;;;5.60;99.90;;;;;;5112932;28;20055;-73
2023/01/16 02:30:02;;;;;;;9.02;2.47;;;5.60;99.90;;;;;;5081643;28;20081;-73
2023/01/16 02:32:51;;;;;;;8.48;2.50;;;5.60;99.90;;;;;;5125009;28;20620;-73
2023/01/16 02:35:42;;;;;;;7.57;2.63;;;5.60;99.90;;;;;;5099862;28;20474;-73
2023/01/16 02:38:23;;;;;;;8.30;2.50;;;5.60;99.90;;;;;;5108990;27;20072;-73
2023/01/16 02:41:02;;;;;;;8.73;2.78;;;5.60;99.90;;;;;;5134295;27;20100;-73
2023/01/16 02:43:44;;;;;;;7.75;2.80;;;5.60;99.90;;;;;;5118021;27;20549;-72
2023/01/16 02:46:32;;;;;;;7.43;2.20;;;5.60;99.90;;;;;;5115882;27;20043;-74
2023/01/16 02:49:29;;;;;;;8.70;2.55;;;5.60;99.90;;;;;;5130598;27;20047;-73
2023/01/16 02:52:04;;;;;;;;;;;5.60;99.90;;;;;;5132553;27;20130;-73
2023/01/16 02:54:43;;;;;;;11.23;3.20;;;5.60;99.90;;;;;;5134522;27;19920;-73
2023/01/16 02:57:17;;;;;;;9.25;2.75;;;5.60;99.90;;;;;;5114388;27;20137;-74
2023/01/16 02:59:43;;;;;;;7.22;2.45;;;5.60;99.90;;;;;;5132641;27;20071;-73
2023/01/16 03:02:09;;;;;;;7.15;2.30;;;5.60;99.90;;;;;;5115550;27;20051;-73
2023/01/16 03:04:51;;;;;;;8.70;2.13;;;5.60;99.90;;;;;;5110698;27;20058;-73
2023/01/16 03:07:25;;;;;;;7.40;2.60;;;5.60;99.90;;;;;;5133550;27;20054;-73
2023/01/16 03:10:12;;;;;;;11.30;3.10;;;5.60;99.90;;;;;;5131902;27;20079;-73
2023/01/16 03:12:51;;;;;;;8.93;2.80;;;5.60;99.90;;;;;;5134403;27;20049;-73
2023/01/16 03:15:53;;;;;;;9.52;2.80;;;5.60;99.90;;;;;;5131367;27;20494;-73
2023/01/16 03:18:45;;;;;;;6.95;2.63;;;5.50;99.90;;;;;;5115421;27;20054;-73
2023/01/16 03:21:29;;;;;;;7.18;2.70;;;5.50;99.90;;;;;;5113071;27;20220;-73
2023/01/16 03:24:08;;;;;;;5.97;2.97;;;5.50;99.90;;;;;;5115074;27;20394;-73
2023/01/16 03:26:49;;;;;;;7.55;3.40;;;5.50;99.90;;;;;;5134026;27;20489;-73
2023/01/16 03:29:29;;;;;;;6.22;3.30;;;5.50;99.90;;;;;;5113475;27;20047;-74
2023/01/16 03:32:23;;;;;;;9.07;3.85;;;5.50;99.90;;;;;;5110699;27;20043;-74
2023/01/16 03:34:56;;;;;;;5.50;3.88;;;5.50;99.90;;;;;;5129339;27;20043;-73
2023/01/16 03:37:31;;;;;;;6.45;4.00;;;5.50;99.90;;;;;;5115007;27;20126;-73
2023/01/16 03:40:01;;;;;;;6.32;4.10;;;5.40;99.90;;;;;;5133258;27;20039;-73
2023/01/16 03:42:39;;;;;;;7.38;4.72;;;5.40;99.90;;;;;;5132697;27;20040;-73
2023/01/16 03:45:17;;;;;;;8.43;5.60;;;5.40;99.90;;;;;;5132740;27;20087;-73
2023/01/16 03:47:50;;;;;;;8.75;5.82;;;5.40;99.90;;;;;;5132288;27;20050;-73
2023/01/16 03:50:20;;;;;;;8.25;5.57;;;5.40;99.90;;;;;;5112243;27;20043;-73
2023/01/16 03:52:51;;;;;;;7.35;5.55;;;5.40;99.90;;;;;;5133544;27;20489;-73
2023/01/16 03:55:19;;;;;;;8.57;5.82;;;5.40;99.90;;;;;;5112499;27;20035;-73
2023/01/16 03:58:07;;;;;;;9.55;6.72;;;5.40;99.90;;;;;;5115056;27;20493;-73
2023/01/16 04:00:58;;;;;;;9.20;6.85;;;5.30;99.90;;;;;;5126516;27;20035;-73
2023/01/16 04:03:31;;;;;;;9.68;6.82;;;5.40;99.90;;;;;;5106568;27;20097;-73
2023/01/16 04:06:05;;;;;;;11.68;8.07;;;5.30;99.90;;;;;;5123721;27;20521;-73
2023/01/16 04:08:39;;;;;;;11.23;9.20;;;5.30;99.90;;;;;;5114750;27;20051;-73
2023/01/16 04:11:05;;;;;;;13.23;10.52;;;5.20;99.90;;;;;;5129687;27;20116;-73
2023/01/16 04:13:40;;;;;;;12.55;10.73;;;5.20;99.90;;;;;;5132604;27;20417;-73
2023/01/16 04:16:09;;;;;;;14.80;11.13;;;5.20;99.90;;;;;;5110930;27;20043;-73
2023/01/16 04:18:36;;;;;;;14.27;11.20;;;5.20;99.90;;;;;;5131225;27;20031;-73
2023/01/16 04:21:07;;;;;;;12.77;10.90;;;5.30;99.90;;;;;;5112448;27;20126;-74
2023/01/16 04:23:33;;;;;;;14.93;10.95;;;5.30;99.90;;;;;;5109425;27;20084;-73
2023/01/16 04:25:59;;;;;;;11.82;10.55;;;5.20;99.90;;;;;;5112497;27;20039;-73
2023/01/16 04:28:24;;;;;;;14.18;10.52;;;5.30;99.90;;;;;;5132570;27;20397;-73
2023/01/16 04:30:50;;;;;;;13.63;10.40;;;5.20;99.90;;;;;;5110447;27;20431;-73
2023/01/16 04:33:15;;;;;;;15.90;10.05;;;5.20;99.90;;;;;;5130943;27;20043;-72
2023/01/16 04:35:41;;;;;;;13.10;9.82;;;5.20;99.90;;;;;;5113845;27;20039;-73
2023/01/16 04:38:07;;;;;;;13.95;9.40;;;5.20;99.90;;;;;;5113580;27;20436;-73
2023/01/16 04:40:32;;;;;;;9.68;8.65;;;5.20;99.90;;;;;;5128253;27;20063;-73
2023/01/16 04:42:58;;;;;;;13.77;8.35;;;5.20;99.90;;;;;;5114746;27;20054;-73
2023/01/16 04:45:24;;;;;;;12.50;8.00;;;5.20;99.90;;;;;;5111979;27;20108;-73
2023/01/16 04:47:51;;;;;;;12.07;7.47;;;5.10;99.90;;;;;;5112850;27;20043;-73
2023/01/16 04:50:17;;;;;;;12.63;6.95;;;5.20;99.90;;;;;;5113144;27;20050;-74
2023/01/16 04:52:43;;;;;;;11.00;6.97;;;5.10;99.90;;;;;;5113719;27;20073;-73
2023/01/16 04:55:09;;;;;;;11.60;6.80;;;5.20;99.90;;;;;;5130714;27;20031;-73
2023/01/16 04:57:35;;;;;;;15.02;7.45;;;5.10;99.90;;;;;;5132369;27;20055;-73
2023/01/16 05:00:03;;;;;;;11.20;6.38;;;5.10;99.90;;;;;;5113035;28;20070;-73
2023/01/16 05:02:28;;;;;;;9.48;5.80;;;5.20;99.90;;;;;;5129152;27;20039;-73
2023/01/16 05:04:54;;;;;;;10.57;6.63;;;5.10;99.90;;;;;;5126823;27;20051;-73
2023/01/16 05:07:19;;;;;;;10.90;6.38;;;5.10;99.90;;;;;;5112656;27;20054;-73
2023/01/16 05:09:45;;;;;;;10.48;5.85;;;5.00;99.90;;;;;;5113975;27;20448;-73
2023/01/16 05:12:11;;;;;;;11.68;6.18;;;5.00;99.90;;;;;;5131097;27;20108;-74
2023/01/16 05:14:36;;;;;;;11.15;5.80;;;5.00;99.90;;;;;;5127804;27;20052;-73
2023/01/16 05:17:02;;;;;;;10.90;6.18;;;4.90;99.90;;;;;;5131506;27;20035;-73
2023/01/16 05:19:27;;;;;;;12.57;6.32;;;4.90;99.90;;;;;;5112392;27;20086;-73
2023/01/16 05:21:53;;;;;;;12.15;6.07;;;4.90;99.90;;;;;;5113182;28;20070;-72
2023/01/16 05:24:19;;;;;;;11.98;6.63;;;4.90;99.90;;;;;;5128577;27;20146;-73
2023/01/16 05:26:44;;;;;;;13.82;5.85;;;4.90;99.90;;;;;;5131337;27;20078;-73
2023/01/16 05:29:10;;;;;;;9.68;5.93;;;4.80;99.90;;;;;;5112858;27;20088;-73
2023/01/16 05:31:36;;;;;;;11.82;5.75;;;4.80;99.90;;;;;;5110123;27;20042;-73
2023/01/16 05:34:01;;;;;;;10.43;6.10;;;4.80;99.90;;;;;;5112853;28;20047;-73
2023/01/16 05:36:27;;;;;;;8.93;5.32;;;4.80;99.90;;;;;;5126661;27;20031;-73
2023/01/16 05:38:54;;;;;;;15.07;6.50;;;4.70;99.90;;;;;;5112247;28;20378;-73
2023/01/16 05:41:20;;;;;;;18.40;6.25;;;4.70;99.90;;;;;;5111250;28;20555;-74
2023/01/16 05:43:45;;;;;;;8.80;5.78;;;4.70;99.90;;;;;;5113504;28;20140;-73
2023/01/16 05:46:11;;;;;;;9.25;5.30;;;4.70;99.90;;;;;;5129391;28;20039;-72
2023/01/16 05:48:38;;;;;;;11.05;5.72;;;4.70;99.90;;;;;;5111211;28;20096;-73
2023/01/16 05:51:04;;;;;;;8.93;4.95;;;4.80;99.90;;;;;;5111856;28;20108;-73
2023/01/16 05:53:30;;;;;;;6.85;4.47;;;4.70;99.90;;;;;;5131321;28;20474;-73
2023/01/16 05:55:56;;;;;;;10.50;5.45;;;4.70;99.90;;;;;;5109771;28;20047;-74
2023/01/16 05:58:22;;;;;;;10.68;5.65;;;4.70;99.90;;;;;;5110142;28;20039;-73
2023/01/16 06:00:48;;;;;;;10.43;5.00;;;4.70;99.90;;;;;;5131590;28;20047;-73
2023/01/16 06:03:17;;;;;;;11.18;4.85;;;4.70;99.90;;;;;;5109526;28;20139;-73
2023/01/16 06:05:43;;;;;;;12.82;5.35;;;4.70;99.90;;;;;;5129457;28;20138;-73
2023/01/16 06:08:09;;;;;;;9.05;5.30;;;4.70;99.90;;;;;;5112685;28;20138;-73
2023/01/16 06:10:35;;;;;;;10.20;5.32;;;4.70;99.90;;;;;;5131162;28;20075;-73
2023/01/16 06:13:01;;;;;;;10.75;5.57;;;4.70;99.90;;;;;;5133454;27;20046;-73
2023/01/16 06:15:27;;;;;;;10.52;4.75;;;4.70;99.90;;;;;;5114854;27;20042;-73
2023/01/16 06:17:53;;;;;;;9.60;5.20;;;4.70;99.90;;;;;;5114814;27;20051;-73
2023/01/16 06:20:19;;;;;;;11.02;5.20;;;4.70;99.90;;;;;;5116086;27;20118;-73
2023/01/16 06:22:45;;;;;;;7.45;4.65;;;4.70;99.90;;;;;;5115548;27;20043;-73
2023/01/16 06:25:11;;;;;;;9.82;4.82;;;4.70;99.90;;;;;;5116271;27;20473;-73
2023/01/16 06:27:37;;;;;;;9.07;4.60;;;4.70;99.90;;;;;;5135644;27;20054;-73
2023/01/16 06:30:05;;;;;;;7.32;4.43;;;4.70;99.90;;;;;;5131626;27;20138;-73
2023/01/16 06:32:30;;;;;;;;;;;4.70;99.90;;;;;;5103949;27;20039;-73
2023/01/16 06:34:56;;;;;;;10.55;4.57;;;4.70;99.90;;;;;;5135296;27;19971;-73
2023/01/16 06:37:21;;;;;;;12.40;4.72;;;4.70;99.90;;;;;;5108630;27;20166;-73
2023/01/16 06:39:47;;;;;;;8.40;4.60;;;4.70;99.90;;;;;;5133139;27;20035;-73
2023/01/16 06:42:13;;;;;;;6.80;4.10;;;4.70;99.90;;;;;;5133025;27;20047;-73
2023/01/16 06:44:38;;;;;;;9.68;4.47;;;4.60;99.90;;;;;;5113426;27;20042;-73
2023/01/16 06:47:04;;;;;;;9.70;4.32;;;4.70;99.90;;;;;;5133687;27;20031;-73
2023/01/16 06:49:29;;;;;;;10.35;4.32;;;4.60;99.90;;;;;;5114501;27;20168;-73
2023/01/16 06:51:55;;;;;;;7.75;4.45;;;4.60;99.90;;;;;;5133802;27;20114;-73
2023/01/16 06:54:21;;;;;;;8.93;4.20;;;4.60;99.90;;;;;;5131250;27;20067;-75
2023/01/16 06:56:47;;;;;;;9.65;4.30;;;4.60;99.90;;;;;;5126080;27;20046;-74
2023/01/16 06:59:13;;;;;;;9.75;4.50;;;4.50;99.90;;;;;;5128903;27;20156;-74
2023/01/16 07:01:39;;;;;;;12.02;4.20;;;4.50;99.90;;;;;;5108901;27;20112;-74
2023/01/16 07:04:06;;;;;;;9.40;4.10;;;4.60;99.90;;;;;;5132704;27;20039;-75
2023/01/16 07:06:32;;;;;;;10.65;4.57;;;4.50;99.90;;;;;;5132235;27;20130;-74
2023/01/16 07:08:58;;;;;;;8.60;4.28;;;4.50;99.90;;;;;;5111594;27;20474;-74
2023/01/16 07:11:24;;;;;;;11.18;4.80;;;4.60;99.90;;;;;;5132407;27;20035;-74
2023/01/16 07:22:33;;;;;;;12.60;4.90;;;4.60;99.90;;;;;;5113156;27;20039;-75
2023/01/16 07:24:48;;;;;;;12.93;5.50;;;4.50;99.90;;;;;;5113286;27;20075;-75
2023/01/16 07:27:15;;;;;;;13.20;5.35;;;4.50;99.90;;;;;;5129508;27;20043;-75
2023/01/16 07:29:41;;;;;;;10.70;5.35;;;4.50;99.90;;;;;;5110078;27;20066;-75
2023/01/16 07:32:07;;;;;;;11.32;5.28;;;4.50;99.90;;;;;;5126333;27;20066;-75
2023/01/16 07:34:34;;;;;;;9.93;4.88;;;4.50;99.90;;;;;;5131399;27;20550;-75
2023/01/16 07:37:01;;;;;;;11.52;5.15;;;4.50;99.90;;;;;;5129149;27;20039;-75
2023/01/16 07:39:27;;;;;;;11.43;5.25;;;4.50;99.90;;;;;;5114182;27;20078;-75
2023/01/16 07:41:52;;;;;;;10.73;5.40;;;4.50;99.90;;;;;;5109829;27;20074;-75
2023/01/16 07:44:18;;;;;;;8.93;5.30;;;4.50;99.90;;;;;;5127046;27;20043;-75
2023/01/16 07:46:44;;;;;;;10.15;5.40;;;4.50;99.90;;;;;;5109254;27;20039;-75
2023/01/16 07:49:09;;;;;;;10.48;4.93;;;4.50;99.90;;;;;;5099386;27;20390;-75
2023/01/16 07:51:35;;;;;;;8.00;4.47;;;4.60;99.90;;;;;;5130138;27;20108;-75
2023/01/16 07:54:01;;;;;;;9.60;4.97;;;4.50;99.90;;;;;;5108955;27;20051;-75
2023/01/16 07:56:27;;;;;;;9.55;4.50;;;4.50;99.90;;;;;;5129220;27;20204;-75
2023/01/16 07:58:54;;;;;;;7.70;5.22;;;4.50;99.90;;;;;;5108346;27;20470;-75
2023/01/16 08:01:20;;;;;;;14.70;5.38;;;4.50;99.90;;;;;;5126599;27;20067;-75
2023/01/16 08:03:46;;;;;;;9.35;4.32;;;4.50;99.90;;;;;;5128816;27;20042;-75
2023/01/16 08:06:12;;;;;;;10.50;4.97;;;4.50;99.90;;;;;;5104998;27;20047;-75
2023/01/16 08:08:38;;;;;;;10.93;4.68;;;4.60;99.90;;;;;;5129819;27;20039;-75
2023/01/16 08:11:35;;;;;;;9.27;4.25;;;4.60;99.90;;;;;;5112927;27;20138;-75
2023/01/16 08:13:49;;;;;;;7.07;3.90;;;4.60;99.90;;;;;;5131607;27;20039;-75
2023/01/16 08:16:15;;;;;;;8.88;4.57;;;4.60;99.90;;;;;;5129730;27;20508;-76
2023/01/16 08:18:41;;;;;;;8.82;4.22;;;4.60;99.90;;;;;;5125934;27;20048;-76
2023/01/16 08:21:07;;;;;;;9.48;4.47;;;4.60;99.90;;;;;;5114801;27;20039;-78
2023/01/16 08:23:32;;;;;;;8.70;3.80;;;4.60;99.90;;;;;;5130278;27;20477;-80
2023/01/16 08:26:00;;;;;;;7.72;3.83;;;4.60;99.90;;;;;;5130016;27;20167;-75
2023/01/16 08:28:26;;;;;;;;;;;4.60;99.90;;;;;;5110678;27;20050;-78
2023/01/16 08:30:51;;;;;;;9.15;3.65;;;4.60;99.90;;;;;;5108881;27;19927;-75
2023/01/16 08:33:17;;;;;;;7.43;3.33;;;4.70;99.90;;;;;;5131502;27;20050;-78
2023/01/16 08:35:43;;;;;;;7.43;3.40;;;4.70;99.90;;;;;;5124495;27;20505;-81
2023/01/16 08:38:08;;;;;;;5.72;2.95;;;4.70;99.90;;;;;;5111123;27;20140;-78
2023/01/16 08:40:34;;;;;;;8.77;3.15;;;4.70;99.90;;;;;;5111099;27;20084;-81
2023/01/16 08:51:24;;;;;;;5.70;2.30;;;4.80;99.90;;;;;;5128908;27;20074;-73
2023/01/16 08:53:55;;;;;;;5.57;2.38;;;4.80;99.90;;;;;;5132470;27;20065;-74
2023/01/16 08:56:22;;;;;;;6.85;2.42;;;4.80;99.90;;;;;;5112754;27;20080;-76
2023/01/16 08:58:47;;;;;;;6.57;2.30;;;4.80;99.90;;;;;;5131975;27;20090;-77
2023/01/16 09:01:13;;;;;;;4.97;1.95;;;4.80;99.90;;;;;;5111501;27;20328;-77
2023/01/16 09:03:39;;;;;;;6.53;2.42;;;4.90;99.90;;;;;;5128433;27;20089;-76
2023/01/16 09:06:05;;;;;;;4.22;2.05;;;4.90;99.90;;;;;;5110912;28;20051;-75
2023/01/16 09:08:30;;;;;;;4.40;2.13;;;4.90;99.90;;;;;;5104359;27;20071;-79
2023/01/16 09:13:49;;;;;;;5.63;1.90;;;4.90;99.90;;;;;;5121419;27;20043;-79
2023/01/16 09:16:17;;;;;;;5.25;2.00;;;4.90;99.90;;;;;;5113740;27;20043;-79
2023/01/16 09:18:42;;;;;;;;;;;4.90;99.90;;;;;;5130607;27;20037;-76
2023/01/16 09:21:08;;;;;;;5.78;2.30;;;4.90;99.90;;;;;;5110600;27;20017;-77
2023/01/16 09:23:33;;;;;;;5.38;2.00;;;4.90;99.90;;;;;;5111326;27;20042;-77
2023/01/16 09:25:59;;;;;;;7.13;2.15;;;4.90;99.90;;;;;;5131588;27;20036;-77
2023/01/16 09:28:25;;;;;;;6.53;2.40;;;4.90;99.90;;;;;;5131245;27;20398;-78
2023/01/16 09:30:51;;;;;;;5.97;2.08;;;5.00;99.90;;;;;;5131816;27;20118;-79
2023/01/16 09:33:17;;;;;;;6.80;3.60;;;4.90;99.90;;;;;;5109539;27;20126;-77
2023/01/16 09:35:43;;;;;;;6.65;4.10;;;4.90;99.90;;;;;;5103623;27;20134;-78
2023/01/16 09:38:08;;;;;;;8.85;3.92;;;4.90;99.90;;;;;;5111548;28;20442;-77
2023/01/16 09:40:34;;;;;;;6.78;3.15;;;4.90;99.90;;;;;;5113524;28;20046;-78
2023/01/16 09:46:17;;;;;;;4.80;2.95;;;4.90;99.90;;;;;;5128645;27;20040;-79
2023/01/16 09:48:55;;;;;;;5.47;3.40;;;4.90;99.90;;;;;;5132368;27;20047;-79
2023/01/16 09:51:30;;;;;;;6.15;3.35;;;5.00;99.90;;;;;;5114308;27;20247;-76
2023/01/16 09:59:38;;;;;;;6.05;2.60;;;4.90;99.90;;;;;;5132644;27;20047;-76
2023/01/16 10:02:25;;;;;;;6.40;2.40;;;4.90;99.90;;;;;;5116329;27;20058;-74
2023/01/16 10:04:52;;;;;;;6.80;2.05;;;4.90;99.90;;;;;;5113428;27;20054;-72
2023/01/16 10:07:44;;;;;;;4.90;2.35;;;4.90;99.90;;;;;;5134702;27;20039;-74
2023/01/16 10:10:25;;;;;;;4.20;2.17;;;4.90;99.90;;;;;;5125192;27;20085;-75
2023/01/16 10:13:15;;;;;;;5.63;2.05;;;4.90;99.90;;;;;;5135663;27;20086;-72
2023/01/16 10:16:05;;;;;;;7.65;3.10;;;4.90;99.90;;;;;;5127557;27;20053;-76
2023/01/16 10:18:57;;;;;;;5.70;2.50;;;5.00;99.90;;;;;;5133900;27;20050;-77
2023/01/16 10:22:10;;;;;;;9.90;2.40;;;4.90;99.90;;;;;;5112359;27;20047;-73
2023/01/16 10:24:47;;;;;;;10.30;5.03;;;4.90;99.90;;;;;;5014313;28;20092;-74
2023/01/16 10:27:36;;;;;;;4.25;2.00;;;4.90;99.90;;;;;;5004603;28;20083;-72
2023/01/16 10:30:21;;;;;;;7.60;3.67;;;4.90;99.90;;;;;;5089722;27;20058;-73
2023/01/16 10:33:02;;;;;;;4.40;1.92;;;4.90;99.90;;;;;;5105006;27;20031;-73
2023/01/16 10:35:40;;;;;;;5.80;2.38;;;4.90;99.90;;;;;;5114354;27;20096;-73
2023/01/16 10:38:45;;;;;;;7.13;3.47;;;4.90;99.90;;;;;;5115626;27;20070;-71
2023/01/16 10:50:14;;;;;;;5.78;2.28;;;4.90;99.90;;;;;;5133796;27;20489;-71
2023/01/16 10:52:40;;;;;;;4.80;2.05;;;4.90;99.90;;;;;;5130675;27;20094;-72
2023/01/16 10:55:08;;;;;;;4.53;2.50;;;4.90;99.90;;;;;;5133370;27;20379;-73
2023/01/16 10:57:34;;;;;;;5.13;1.80;;;5.00;99.90;;;;;;5115146;27;20329;-73
2023/01/16 11:00:14;;;;;;;7.00;2.22;;;4.90;99.90;;;;;;5133051;27;20409;-73
2023/01/16 11:02:45;;;;;;;3.92;2.38;;;5.00;99.90;;;;;;5133662;27;20421;-73
2023/01/16 11:05:29;;;;;;;5.50;2.10;;;5.00;99.90;;;;;;5114692;27;20086;-73
2023/01/16 11:08:14;;;;;;;4.75;2.65;;;5.00;99.90;;;;;;5130812;27;20385;-72
2023/01/16 11:10:42;;;;;;;4.43;2.05;;;5.00;99.90;;;;;;5111806;27;20047;-72
2023/01/16 11:19:21;;;;;;;3.35;1.70;;;5.00;99.90;;;;;;5133932;27;20130;-73
2023/01/16 11:22:25;;;;;;;7.57;2.22;;;5.00;99.90;;;;;;5129377;27;20031;-72
2023/01/16 11:24:57;;;;;;;5.25;2.00;;;4.90;99.90;;;;;;5108648;27;20126;-73
2023/01/16 11:27:25;;;;;;;5.20;2.20;;;5.00;99.90;;;;;;5129076;27;20160;-73
2023/01/16 11:29:57;;;;;;;4.30;2.03;;;4.90;99.90;;;;;;5114391;27;20141;-72
2023/01/16 11:32:27;;;;;;;4.20;1.98;;;5.00;99.90;;;;;;5130125;27;20042;-73
2023/01/16 11:34:57;;;;;;;5.50;2.10;;;4.90;99.90;;;;;;5132688;27;20043;-73
2023/01/16 11:37:26;;;;;;;5.18;1.88;;;5.00;99.90;;;;;;5130589;27;20122;-73
2023/01/16 11:39:54;;;;;;;6.80;2.13;;;5.00;99.90;;;;;;5113505;27;20824;-74
2023/01/16 11:48:22;;;;;;;4.67;1.70;;;5.10;99.90;;;;;;5104340;27;20047;-76
2023/01/16 11:50:56;;;;;;;6.05;2.45;;;5.10;99.90;;;;;;5124339;27;20375;-79
2023/01/16 11:53:22;;;;;;;3.83;2.13;;;5.10;99.90;;;;;;5129646;27;20066;-78
2023/01/16 11:56:25;;;;;;;7.95;2.30;;;5.10;99.90;;;;;;5111419;27;20489;-77
2023/01/16 11:59:19;;;;;;;5.88;2.60;;;5.10;99.90;;;;;;5131041;27;20039;-76
2023/01/16 12:02:16;;;;;;;4.80;2.15;;;5.20;99.90;;;;;;5107505;27;22033;-76
2023/01/16 12:05:53;;;;;;;5.88;2.63;;;5.20;99.90;;;;;;5102464;27;20927;-75
2023/01/16 12:07:52;;;;;;;4.95;2.22;;;5.20;99.90;;;;;;5130243;27;20078;-75
2023/01/16 12:10:26;;;;;;;3.65;2.38;;;5.20;99.90;;;;;;5103330;27;20047;-75
2023/01/16 12:16:20;;;;;;;5.35;2.42;;;5.30;99.90;;;;;;5109691;27;20442;-71
2023/01/16 12:19:15;;;;;;;7.13;2.35;;;5.30;99.90;;;;;;5130490;27;20053;-72
2023/01/16 12:21:40;;;;;;;4.60;2.13;;;5.30;99.90;;;;;;5101853;27;20752;-72
2023/01/16 12:24:28;;;;;;;6.93;2.53;;;5.30;99.90;;;;;;5130997;27;20046;-72
2023/01/16 12:27:17;;;;;;;5.78;2.22;;;5.30;99.90;;;;;;5131498;27;20448;-72
2023/01/16 12:30:03;;;;;;;7.13;2.60;;;5.30;99.90;;;;;;5129368;27;20040;-72
2023/01/16 12:33:13;;;;;;;7.95;2.00;;;5.30;99.90;;;;;;5130662;27;20050;-72
2023/01/16 12:35:54;;;;;;;4.53;2.55;;;5.30;99.90;;;;;;5104389;27;20047;-72
2023/01/16 12:38:46;;;;;;;9.35;3.30;;;5.30;99.90;;;;;;5111989;27;20121;-72
2023/01/16 12:44:21;;;;;;;5.75;3.78;;;5.30;99.90;;;;;;5127940;27;20043;-71
2023/01/16 12:46:56;;;;;;;6.75;2.90;;;5.30;99.90;;;;;;5129234;27;20039;-72
2023/01/16 12:49:45;;;;;;;6.25;2.78;;;5.30;99.90;;;;;;5130723;27;20047;-72
2023/01/16 12:52:19;;;;;;;3.75;2.25;;;5.40;99.90;;;;;;5112342;27;20168;-71
2023/01/16 12:55:04;;;;;;;4.50;2.50;;;5.30;99.90;;;;;;5107273;27;20095;-72
2023/01/16 12:57:53;;;;;;;5.07;2.42;;;5.40;99.90;;;;;;5105631;27;20050;-75
2023/01/16 13:00:31;;;;;;;3.88;2.50;;;5.40;99.90;;;;;;5126627;27;20075;-75
2023/01/16 13:03:12;;;;;;;6.97;2.67;;;5.40;99.90;;;;;;5124561;27;20382;-75
2023/01/16 13:05:40;;;;;;;4.55;2.33;;;5.30;99.90;;;;;;5120701;27;20051;-76
2023/01/16 13:08:26;;;;;;;5.05;2.13;;;5.30;99.90;;;;;;5104936;27;20043;-76
2023/01/16 13:14:06;;;;;;;3.28;2.15;;;5.40;99.90;;;;;;5126362;27;20110;-74
2023/01/16 13:16:35;;;;;;;4.65;2.25;;;5.40;99.90;;;;;;5111669;27;20081;-75
2023/01/16 13:19:13;;;;;;;2.70;2.10;;;5.40;99.90;;;;;;5127335;27;20083;-75
2023/01/16 13:21:56;;;;;;;5.10;2.22;;;5.40;99.90;;;;;;5108673;27;20039;-74
2023/01/16 13:24:48;;;;;;;4.18;2.40;;;5.50;99.90;;;;;;5126228;27;20486;-71
2023/01/16 13:27:18;;;;;;;5.57;2.70;;;5.60;99.90;;;;;;5124299;27;20063;-74
2023/01/16 13:30:08;;;;;;;4.20;2.42;;;5.70;99.90;;;;;;5105580;27;20080;-74
2023/01/16 13:32:38;;;;;;;6.57;2.90;;;5.80;99.90;;;;;;5109356;27;20092;-73
2023/01/16 13:35:24;;;;;;;4.35;2.20;;;5.80;99.90;;;;;;5128943;27;20115;-72
2023/01/16 13:38:23;;;;;;;5.13;2.63;;;5.90;99.90;;;;;;5124624;27;20076;-75
2023/01/16 13:41:07;;;;;;;4.78;1.98;;;5.90;99.90;;;;;;5106007;28;20047;-74
2023/01/16 13:46:29;;;;;;;;;;;5.80;99.90;;;;;;5125668;28;20047;-75
2023/01/16 13:49:01;;;;;;;4.10;2.08;;;5.70;99.90;;;;;;5129439;28;20038;-75
2023/01/16 13:51:27;;;;;;;3.20;1.70;;;5.60;99.90;;;;;;5106581;28;20103;-75
2023/01/16 13:53:59;;;;;;;4.00;1.80;;;5.60;99.90;;;;;;5125763;28;20035;-75
2023/01/16 13:56:26;;;;;;;4.40;1.75;;;5.60;99.90;;;;;;5127506;28;20027;-75
2023/01/16 13:59:02;;;;;;;2.78;1.80;;;5.60;99.90;;;;;;5123603;28;20050;-74
2023/01/16 14:01:37;;;;;;;4.35;1.88;;;5.60;99.90;;;;;;5107479;28;20115;-74
2023/01/16 14:04:28;;;;;;;2.92;1.60;;;5.60;99.90;;;;;;5111328;27;20043;-72
2023/01/16 14:10:03;;;;;;;3.45;1.80;;;5.60;99.90;;;;;;5124017;28;20044;-75
2023/01/16 14:12:34;;;;;;;4.68;1.90;;;5.60;99.90;;;;;;5098421;28;20152;-75
2023/01/16 14:18:20;;;;;;;3.20;1.75;;;5.60;99.90;;;;;;5129786;28;20074;-76
2023/01/16 14:20:49;;;;;;;2.80;1.70;;;5.60;99.90;;;;;;5125844;28;20047;-76
2023/01/16 14:26:34;;;;;;;2.60;1.48;;;5.70;99.90;;;;;;5100191;28;20051;-77
2023/01/16 14:29:05;;;;;;;4.97;2.00;;;5.70;99.90;;;;;;5109245;28;20149;-76
2023/01/16 14:31:44;;;;;;;3.80;1.77;;;5.70;99.90;;;;;;5127903;28;20055;-75
2023/01/16 14:34:25;;;;;;;2.05;1.45;;;5.70;99.90;;;;;;5104364;27;20046;-75
2023/01/16 14:36:54;;;;;;;3.15;1.60;;;5.70;99.90;;;;;;5112713;27;20047;-75